• Join FlightAware (Why Join?)
  • Login
  • US Flag 
02:58PM EDT


 

Airport Tracker/Info


-or-


 

Live Flight TrackerFlight Track Log ✈ UAL1553 ✈ 17-Aug-2013 ✈ KIAH - CYVR

Flight Track Log - Related Links

Times and Time Zones

All times are in EDT time to prevent confusion due to time zone crossing. See the UAL1553 flight status page for this flight to view local times or setup timezone preferences in your user account.

Time Position Orientation Groundspeed Altitude Reporting Facility
EDT Latitude Longitude Course Direction KTS MPH feet Rate Location/Type
10:35PM 29.9533 -95.3444 334° Northwest 182 209 1,000  Level Houston Center
10:37PM 30.1927 -95.4463 337° Northwest  Level FlightAware Approximate
10:37PM 29.9878 -95.3983 306° West 242 278 4,000  Level Houston Center
10:38PM 30.2933 -95.5122 330° Northwest  Level FlightAware Approximate
10:38PM 30.0606 -95.4378 335° Northwest 273 314 5,000  Level Houston Center
10:38PM 30.1092 -95.4633 336° Northwest 268 308 5,000 1,680 Level Houston Center
10:39PM 30.3953 -95.5751 334° Northwest  Level FlightAware Approximate
10:40PM 30.4995 -95.6331 334° Northwest  Level FlightAware Approximate
10:40PM 30.2081 -95.5056 340° North 270 311 8,700  Level Houston Center
10:41PM 30.2814 -95.5386 339° North 280 322 11,000 1,920 Climbing Houston Center
10:42PM 30.3706 -95.5792 339° North 338 389 12,700 2,100 Climbing Houston Center
10:43PM 30.4636 -95.6197 339° North 355 409 15,300 2,280 Climbing Houston Center
10:44PM 30.5594 -95.6633 339° North 368 423 17,400 1,980 Climbing Houston Center
10:45PM 30.6553 -95.7153 335° Northwest 379 436 19,400 1,920 Climbing Houston Center
10:46PM 30.7586 -95.7719 335° Northwest 388 447 21,400 1,860 Climbing Houston Center
10:47PM 30.8611 -95.8264 335° Northwest 400 460 23,200 1,680 Climbing Houston Center
10:48PM 30.9647 -95.8822 335° Northwest 407 468 24,800 1,440 Climbing Houston Center
10:49PM 31.0722 -95.9392 336° Northwest 419 482 26,200 1,320 Climbing Houston Center
10:50PM 31.1850 -95.9911 338° Northwest 429 494 27,500 1,140 Climbing Houston Center
10:51PM 31.3019 -96.0361 342° North 438 504 28,600 1,140 Climbing Houston Center
10:52PM 31.4219 -96.0831 342° North 449 517 29,900 1,680 Climbing Houston Center
10:53PM 31.5514 -96.1322 342° North 444 511 32,000 1,680 Climbing Houston Center
10:54PM 31.6636 -96.1772 341° North 428 493 33,300 1,140 Climbing Houston Center
10:55PM 31.7794 -96.2217 342° North 430 495 34,400 900 Climbing Houston Center
10:56PM 31.8922 -96.2669 341° North 428 493 35,200 720 Climbing Houston Center
10:57PM 32.0083 -96.3114 342° North 434 499 35,900 360 Climbing Houston Center
10:58PM 32.1242 -96.3575 341° North 435 501 36,000  Climbing Houston Center
10:59PM 32.2292 -96.4258 331° Northwest 430 495 36,000  Level Houston Center
11:00PM 32.3181 -96.5264 316° Northwest 437 503 36,000  Level Houston Center
11:01PM 32.4219 -96.6481 315° West 428 493 36,000  Level Fort Worth Center
11:02PM 32.5100 -96.7483 316° Northwest 428 493 36,000  Level Fort Worth Center
11:03PM 32.5961 -96.8439 317° Northwest 428 493 36,000  Level Fort Worth Center
11:04PM 32.6822 -96.9444 316° Northwest 428 493 36,000  Level Fort Worth Center
11:05PM 32.7681 -97.0403 317° Northwest 428 493 36,000  Level Fort Worth Center
11:06PM 32.8622 -97.1489 316° Northwest 434 499 36,000  Level Fort Worth Center
11:07PM 32.9375 -97.2378 315° West 434 499 36,000  Level Fort Worth Center
11:08PM 33.0339 -97.3639 312° West 442 509 36,000  Level Fort Worth Center
11:09PM 33.1131 -97.4631 314° West 442 509 36,000  Level Fort Worth Center
11:10PM 33.1944 -97.5672 313° West 437 503 36,000  Level Fort Worth Center
11:11PM 33.2756 -97.6694 314° West 431 496 36,000  Level Fort Worth Center
11:12PM 33.3608 -97.7742 314° West 431 496 36,000  Level Fort Worth Center
11:13PM 33.4419 -97.8789 313° West 431 496 36,000  Level Fort Worth Center
11:14PM 33.5250 -97.9842 313° West 431 496 36,000  Level Fort Worth Center
11:15PM 33.6058 -98.0894 313° West 431 496 36,000  Level Fort Worth Center
11:16PM 33.6908 -98.1947 314° West 431 496 36,000  Level Fort Worth Center
11:17PM 33.7736 -98.3006 313° West 431 496 36,000  Level Fort Worth Center
11:18PM 33.8583 -98.4064 314° West 431 496 36,000  Level Fort Worth Center
11:19PM 33.9389 -98.5125 312° West 431 496 36,000  Level Fort Worth Center
11:20PM 34.0194 -98.6189 312° West 431 496 36,000  Level Fort Worth Center
11:21PM 34.0997 -98.7278 312° West 426 490 36,000  Level Fort Worth Center
11:22PM 34.1839 -98.8344 314° West 426 490 36,000  Level Fort Worth Center
11:23PM 34.2642 -98.9389 313° West 426 490 36,000  Level Fort Worth Center
11:24PM 34.3442 -99.0433 313° West 421 484 36,000  Level Fort Worth Center
11:27PM 34.5031 -99.2456 314° West 421 484 36,000  Level Albuquerque Center
11:28PM 34.5989 -99.3717 313° West 422 486 36,000  Level Albuquerque Center
11:29PM 34.6794 -99.4772 313° West 422 486 36,000  Level Albuquerque Center
11:30PM 34.7586 -99.5833 312° West 423 487 36,000  Level Albuquerque Center
11:31PM 34.8383 -99.6886 313° West 421 484 36,000  Level Albuquerque Center
11:32PM 34.9181 -99.7956 312° West 423 487 36,000  Level Albuquerque Center
11:33PM 34.9978 -99.9017 313° West 423 487 36,000  Level Albuquerque Center
11:34PM 35.0772 -100.0081 312° West 422 486 36,000  Level Albuquerque Center
11:35PM 35.1569 -100.1156 312° West 423 487 36,000  Level Albuquerque Center
11:36PM 35.2361 -100.2244 312° West 425 489 36,000  Level Albuquerque Center
11:37PM 35.3164 -100.3322 312° West 425 489 36,000  Level Albuquerque Center
11:38PM 35.3958 -100.4403 312° West 425 489 36,000  Level Albuquerque Center
11:39PM 35.4739 -100.5481 312° West 423 487 36,000  Level Albuquerque Center
11:40PM 35.5575 -100.6603 313° West 422 486 36,000  Level Albuquerque Center
11:41PM 35.6361 -100.7672 312° West 423 487 36,000  Level Albuquerque Center
11:42PM 35.7136 -100.8739 312° West 422 486 36,000  Level Albuquerque Center
11:43PM 35.7911 -100.9811 312° West 421 484 36,000  Level Albuquerque Center
11:44PM 35.8700 -101.0914 311° West 426 490 36,000  Level Albuquerque Center
11:45PM 35.9492 -101.2017 312° West 429 494 36,000  Level Albuquerque Center
11:46PM 36.0264 -101.3092 312° West 427 491 36,000  Level Albuquerque Center
11:47PM 36.1056 -101.4211 311° West 431 496 36,000  Level Albuquerque Center
11:48PM 36.2000 -101.5539 311° West 432 497 36,000  Level Albuquerque Center
11:49PM 36.2786 -101.6650 311° West 431 496 36,000  Level Albuquerque Center
11:50PM 36.3567 -101.7744 312° West 428 493 36,000  Level Albuquerque Center
11:51PM 36.4336 -101.8839 311° West 424 488 36,000  Level Albuquerque Center
11:52PM 36.5106 -101.9939 311° West 423 487 36,000  Level Albuquerque Center
11:53PM 36.5872 -102.1033 311° West 422 486 36,000  Level Albuquerque Center
11:54PM 36.6625 -102.2106 311° West 416 479 36,000  Level Albuquerque Center
11:55PM 36.7378 -102.3200 311° West 416 479 36,000  Level Albuquerque Center
11:56PM 36.8133 -102.4286 311° West 416 479 36,000  Level Albuquerque Center
11:57PM 36.8889 -102.5372 311° West 413 475 36,000  Level Albuquerque Center
11:58PM 36.9733 -102.6600 311° West 415 478 36,000  Level Albuquerque Center
11:59PM 37.0458 -102.7656 311° West 417 480 36,000  Level Albuquerque Center
12:00AM 37.1200 -102.8722 311° West 422 486 36,000  Level Albuquerque Center
12:01AM 37.2044 -102.9986 310° West 424 488 36,000  Level Albuquerque Center
12:02AM 37.2792 -103.1067 311° West 425 489 36,000  Level Albuquerque Center
12:03AM 37.3528 -103.2153 310° West 427 491 36,000  Level Albuquerque Center
12:04AM 37.4383 -103.3403 311° West 425 489 36,000  Level Albuquerque Center
12:05AM 37.5111 -103.4497 310° West 426 490 36,000  Level Albuquerque Center
12:06AM 37.5839 -103.5575 310° West 425 489 36,000  Level Albuquerque Center
12:07AM 37.6803 -103.7011 310° West 426 490 36,000  Level Denver Center
12:08AM 37.7519 -103.8089 310° West 423 487 36,000  Level Denver Center
12:09AM 37.8350 -103.9347 310° West 420 483 36,000  Level Denver Center
12:10AM 37.9058 -104.0436 310° West 422 486 36,000  Level Denver Center
12:11AM 37.9897 -104.1714 310° West 425 489 36,000  Level Denver Center
12:12AM 38.0617 -104.2814 310° West 425 489 36,000  Level Denver Center
12:13AM 38.1350 -104.3928 310° West 429 494 36,000  Level Denver Center
12:14AM 38.2192 -104.5244 309° West 432 497 36,000  Level Denver Center
12:15AM 38.2914 -104.6361 310° West 429 494 36,000  Level Denver Center
12:16AM 38.3644 -104.7500 309° West 427 491 36,000  Level Denver Center
12:17AM 38.4394 -104.8642 310° West 421 484 36,000  Level Denver Center
12:18AM 38.5117 -104.9789 309° West 414 476 36,000  Level Denver Center
12:19AM 38.5858 -105.0919 310° West 414 476 36,000  Level Denver Center
12:20AM 38.6583 -105.2064 309° West 414 476 36,000  Level Denver Center
12:21AM 38.7306 -105.3217 309° West 414 476 36,000  Level Denver Center
12:22AM 38.8039 -105.4369 309° West 415 478 36,000  Level Denver Center
12:23AM 38.8764 -105.5506 309° West 412 474 36,000  Level Denver Center
12:24AM 38.9497 -105.6675 309° West 418 481 36,000  Level Denver Center
12:25AM 39.0225 -105.7833 309° West 418 481 36,000  Level Denver Center
12:27AM 39.0947 -105.9000 309° West 416 479 36,000  Level Denver Center
12:28AM 39.1675 -106.0161 309° West 416 479 36,000  Level Denver Center
12:29AM 39.2397 -106.1336 308° West 417 480 36,000  Level Denver Center
12:30AM 39.3214 -106.2633 309° West 416 479 36,000  Level Denver Center
12:31AM 39.3889 -106.3756 308° West 414 476 36,000  Level Denver Center
12:32AM 39.4631 -106.4942 309° West 415 478 36,000  Level Denver Center
12:33AM 39.5389 -106.6197 308° West 418 481 36,000  Level Denver Center
12:34AM 39.6067 -106.7308 308° West 406 467 36,000  Level Denver Center
12:35AM 39.6767 -106.8481 308° West 419 482 36,000  Level Denver Center
12:36AM 39.7486 -106.9661 308° West 426 490 36,000  Level Denver Center
12:37AM 39.8183 -107.0833 308° West 416 479 36,000  Level Denver Center
12:38AM 39.8936 -107.2086 308° West 417 480 36,000  Level Denver Center
12:39AM 39.9603 -107.3200 308° West 411 473 36,000  Level Denver Center
12:40AM 40.0397 -107.4533 308° West 416 479 36,000  Level Denver Center
12:41AM 40.1072 -107.5689 307° West 419 482 36,000  Level Denver Center
12:42AM 40.1756 -107.6819 308° West 416 479 36,000  Level Denver Center
12:43AM 40.2528 -107.8161 307° West 414 476 36,000  Level Denver Center
12:44AM 40.3211 -107.9336 307° West 423 487 36,000  Level Denver Center
12:45AM 40.3894 -108.0489 308° West 421 484 36,000  Level Denver Center
12:46AM 40.4567 -108.1650 307° West 418 481 36,000  Level Denver Center
12:47AM 40.5356 -108.3044 307° West 425 489 36,000  Level Denver Center
12:48AM 40.6008 -108.4189 307° West 424 488 36,000  Level Salt Lake Center
12:49AM 40.6692 -108.5367 307° West 423 487 36,000  Level Salt Lake Center
12:50AM 40.7383 -108.6586 307° West 430 495 36,000  Level Salt Lake Center
12:51AM 40.8186 -108.8006 307° West 431 496 36,000  Level Salt Lake Center
12:52AM 40.8881 -108.9222 307° West 433 498 36,000  Level Salt Lake Center
12:53AM 40.9569 -109.0456 307° West 434 499 36,000  Level Salt Lake Center
12:54AM 41.0375 -109.1903 306° West 434 499 36,000  Level Salt Lake Center
12:55AM 41.1072 -109.3156 306° West 437 503 36,000  Level Salt Lake Center
12:56AM 41.1781 -109.4417 307° West 440 506 36,000  Level Salt Lake Center
12:57AM 41.2589 -109.5875 306° West 438 504 36,000  Level Salt Lake Center
12:58AM 41.3272 -109.7119 306° West 434 499 36,000  Level Salt Lake Center
12:59AM 41.3958 -109.8347 307° West 432 497 36,000  Level Salt Lake Center
01:01AM 41.5297 -110.0817 306° West 429 494 36,000  Level Salt Lake Center
01:02AM 41.5969 -110.2047 306° West 428 493 36,000  Level Salt Lake Center
01:03AM 41.6742 -110.3489 306° West 428 493 36,000  Level Salt Lake Center
01:04AM 41.7406 -110.4711 306° West 425 489 36,000  Level Salt Lake Center
01:05AM 41.8083 -110.5953 306° West 430 495 36,000  Level Salt Lake Center
01:06AM 41.8742 -110.7211 305° West 430 495 36,000  Level Salt Lake Center
01:07AM 41.9519 -110.8672 306° West 430 495 36,000  Level Salt Lake Center
01:08AM 42.0147 -110.9853 306° West 434 499 36,000  Level Salt Lake Center
01:09AM 42.0844 -111.1167 306° West 434 499 36,000  Level Salt Lake Center
01:10AM 42.1525 -111.2483 305° West 432 497 36,000  Level Salt Lake Center
01:11AM 42.2356 -111.4058 305° West 431 496 36,000  Level Salt Lake Center
01:12AM 42.3042 -111.5394 305° West 435 501 36,000  Level Salt Lake Center
01:13AM 42.3728 -111.6703 305° West 431 496 36,000  Level Salt Lake Center
01:14AM 42.4414 -111.8039 305° West 433 498 36,000 480 Level Salt Lake Center
01:15AM 42.5100 -111.9378 305° West 434 499 37,000 960 Climbing Salt Lake Center
01:16AM 42.5778 -112.0686 305° West 429 494 38,000 480 Climbing Salt Lake Center
01:17AM 42.6442 -112.2000 305° West 425 489 38,000  Level Salt Lake Center
01:18AM 42.7153 -112.3389 305° West 427 491 38,000  Level Salt Lake Center
01:19AM 42.7797 -112.4658 305° West 425 489 38,000  Level Salt Lake Center
01:20AM 42.8436 -112.5933 304° West 425 489 38,000  Level Salt Lake Center
01:21AM 42.9183 -112.7439 304° West 428 493 38,000  Level Salt Lake Center
01:22AM 42.9825 -112.8728 304° West 429 494 38,000  Level Salt Lake Center
01:23AM 43.0475 -113.0033 304° West 432 497 38,000  Level Salt Lake Center
01:24AM 43.1111 -113.1319 304° West 427 491 38,000  Level Salt Lake Center
01:25AM 43.2000 -113.2744 311° West 438 504 38,000  Level Salt Lake Center
01:26AM 43.2733 -113.3958 310° West 433 498 38,000  Level Salt Lake Center
01:27AM 43.3475 -113.5164 310° West 430 495 38,000  Level Salt Lake Center
01:28AM 43.4328 -113.6594 309° West 432 497 38,000  Level Salt Lake Center
01:29AM 43.5103 -113.7861 310° West 449 517 38,000  Level Salt Lake Center
01:30AM 43.5850 -113.9083 310° West 440 506 38,000  Level Salt Lake Center
01:31AM 43.6653 -114.0478 309° West 423 487 38,000  Level Salt Lake Center
01:32AM 43.7381 -114.1711 309° West 432 497 38,000  Level Salt Lake Center
01:33AM 43.8111 -114.2947 309° West 434 499 38,000  Level Salt Lake Center
01:34AM 43.8836 -114.4181 309° West 433 498 38,000  Level Salt Lake Center
01:35AM 43.9681 -114.5606 309° West 430 495 38,000  Level Salt Lake Center
01:36AM 44.0392 -114.6825 309° West 427 491 38,000  Level Salt Lake Center
01:37AM 44.1114 -114.8053 309° West 428 493 38,000  Level Salt Lake Center
01:38AM 44.1947 -114.9483 309° West 426 490 38,000  Level Salt Lake Center
01:39AM 44.2639 -115.0706 308° West 422 486 38,000  Level Salt Lake Center
01:40AM 44.3342 -115.1925 309° West 421 484 38,000  Level Salt Lake Center
01:41AM 44.4158 -115.3361 309° West 422 486 38,000  Level Salt Lake Center
01:42AM 44.4869 -115.4589 309° West 425 489 38,000  Level Salt Lake Center
01:43AM 44.5572 -115.5831 308° West 426 490 38,000  Level Salt Lake Center
01:44AM 44.6400 -115.7292 309° West 431 496 38,000  Level Salt Lake Center
01:45AM 44.7106 -115.8544 308° West 431 496 38,000  Level Salt Lake Center
01:46AM 44.7808 -115.9794 308° West 430 495 38,000  Level Salt Lake Center
01:47AM 44.8625 -116.1283 308° West 432 497 38,000  Level Salt Lake Center
01:48AM 44.9317 -116.2561 307° West 432 497 38,000  Level Salt Lake Center
01:49AM 45.0017 -116.3828 308° West 430 495 38,000  Level Salt Lake Center
01:50AM 45.0822 -116.5292 308° West 425 489 38,000  Level Salt Lake Center
01:51AM 45.1511 -116.6569 307° West 426 490 38,000  Level Salt Lake Center
01:52AM 45.2211 -116.7850 308° West 428 493 38,000  Level Salt Lake Center
01:53AM 45.3019 -116.9344 308° West 428 493 38,000  Level Salt Lake Center
01:54AM 45.3706 -117.0622 307° West 426 490 38,000  Level Salt Lake Center
01:55AM 45.4383 -117.1917 307° West 426 490 38,000  Level Salt Lake Center
01:56AM 45.5175 -117.3392 307° West 422 486 38,000  Level Salt Lake Center
01:57AM 45.5847 -117.4664 307° West 420 483 38,000  Level Salt Lake Center
01:58AM 45.6517 -117.5933 307° West 419 482 38,000  Level Salt Lake Center
01:59AM 45.7181 -117.7203 307° West 418 481 38,000  Level Salt Lake Center
02:00AM 45.7861 -117.8522 307° West 419 482 38,000  Level Salt Lake Center
02:01AM 45.8550 -117.9839 307° West 416 479 38,000  Level Salt Lake Center
02:02AM 45.9236 -118.1161 307° West 415 478 38,000  Level Salt Lake Center
02:03AM 45.9922 -118.2478 307° West 414 476 38,000  Level Salt Lake Center
02:04AM 46.0586 -118.3797 306° West 410 472 38,000  Level Salt Lake Center
02:05AM 46.1508 -118.5592 307° West 402 463 38,000  Level Seattle Center
02:06AM 46.2158 -118.6889 306° West 402 463 38,000  Level Seattle Center
02:07AM 46.2928 -118.8417 306° West 404 465 38,000  Level Seattle Center
02:08AM 46.3456 -118.9475 306° West 396 456 38,000  Level Seattle Center
02:09AM 46.4086 -119.0731 306° West 390 449 38,000  Level Seattle Center
02:10AM 46.4844 -119.2269 306° West 392 451 38,000  Level Seattle Center
02:11AM 46.5467 -119.3517 306° West 386 444 38,000  Level Seattle Center
02:12AM 46.6094 -119.4783 306° West 387 445 38,000  Level Seattle Center
02:13AM 46.6719 -119.6047 306° West 386 444 38,000  Level Seattle Center
02:14AM 46.7347 -119.7322 306° West 387 445 38,000  Level Seattle Center
02:15AM 46.7961 -119.8628 305° West 390 449 38,000  Level Seattle Center
02:17AM 46.8578 -119.9906 305° West 387 445 38,000  Level Seattle Center
02:18AM 46.9203 -120.1192 305° West 388 447 38,000  Level Seattle Center
02:19AM 46.9836 -120.2439 307° West 385 443 38,000  Level Seattle Center
02:20AM 47.0656 -120.3464 320° Northwest 384 442 38,000  Level Seattle Center
02:21AM 47.1478 -120.4497 319° Northwest 388 447 38,000 -60 Level Seattle Center
02:22AM 47.2286 -120.5514 320° Northwest 384 442 37,900 -60 Descending Seattle Center
02:23AM 47.3103 -120.6567 319° Northwest 390 449 37,900  Level Seattle Center
02:24AM 47.3908 -120.7603 319° Northwest 386 444 37,900  Level Seattle Center
02:25AM 47.4761 -120.8681 320° Northwest 381 438 38,000  Climbing Seattle Center
02:26AM 47.5561 -120.9717 319° Northwest 384 442 38,000  Level Seattle Center
02:27AM 47.6378 -121.0731 320° Northwest 389 448 38,000  Level Seattle Center
02:28AM 47.7156 -121.1756 318° Northwest 383 441 38,000  Level Seattle Center
02:29AM 47.7953 -121.2783 319° Northwest 383 441 38,000 -540 Level Seattle Center
02:30AM 47.8733 -121.3806 319° Northwest 381 438 37,000 -2,340 Descending Seattle Center
02:31AM 47.9531 -121.4867 318° Northwest 386 444 33,400 -3,720 Descending Seattle Center
02:32AM 48.0403 -121.6019 319° Northwest 416 479 29,600 -3,180 Descending Seattle Center
02:33AM 48.1294 -121.7186 319° Northwest 432 497 27,100 -2,340 Descending Seattle Center
02:34AM 48.2133 -121.8325 318° Northwest 418 481 25,000 -2,160 Descending Seattle Center
02:35AM 48.3103 -121.9639 318° Northwest 402 463 22,800 -2,100 Descending Seattle Center
02:36AM 48.3906 -122.0711 318° Northwest 395 455 20,800 -2,040 Descending Seattle Center
02:37AM 48.4667 -122.1761 318° Northwest 381 438 18,800 -2,040 Descending Seattle Center
02:38AM 48.5428 -122.2781 318° Northwest 374 430 16,700 -2,160 Descending Seattle Center
02:39AM 48.6158 -122.3778 318° Northwest 365 420 14,500 -2,100 Descending Seattle Center
02:40AM 48.6847 -122.4733 318° Northwest 349 402 12,500 -1,260 Descending Seattle Center
02:41AM 48.7478 -122.5694 315° West 332 382 12,000 -660 Descending Seattle Center
02:42AM 48.8000 -122.6833 305° West 310 357 11,200 -840 Descending Vancouver Center
02:43AM 48.8500 -122.7833 307° West 320 368 10,300 -600 Descending Vancouver Center
02:44AM 48.9167 -122.8833 315° West 320 368 10,000 -720 Descending Vancouver Center
02:45AM 48.9667 -122.9833 307° West 300 345 8,900 -1,440 Descending Vancouver Center
02:46AM 49.0167 -123.0667 312° West 280 322 7,200 -1,740 Descending Vancouver Center
02:47AM 49.0667 -123.1667 307° West 280 322 5,500 -1,500 Descending Vancouver Center
02:48AM 49.0833 -123.2667 284° West 250 288 4,300 -1,440 Descending Vancouver Center
02:49AM 49.1000 -123.3333 291° West 230 265 2,700 -1,200 Descending Vancouver Center
02:50AM 49.1500 -123.3833 327° Northwest 200 230 2,000 -540 Descending Vancouver Center
02:51AM 49.1833 -123.3667 18° North 190 219 1,700 -480 Descending Vancouver Center
02:52AM 49.1833 -123.2833 90° East 180 207 1,100 -720 Descending Vancouver Center
02:53AM 49.1667 -123.2167 111° Southeast 150 173 300 -840 Descending Vancouver Center